Weather reports worldwide

Advertisment
Berlin/Tempelhof, Germany (10384): temperature & dewpoint: 14.06.2019 06:00:00 - 20.06.2019 06:00:00 (CEST)Berlin/Tempelhof, Germany (10384): temperature 5cm & temperature -5cm: 14.06.2019 06:00:00 - 20.06.2019 06:00:00 (CEST)Berlin/Tempelhof, Germany (10384): temperature -20cm & temperature -100cm: 14.06.2019 06:00:00 - 20.06.2019 06:00:00 (CEST)Berlin/Tempelhof, Germany (10384): wind speed & gusts: 14.06.2019 06:00:00 - 20.06.2019 06:00:00 (CEST)Berlin/Tempelhof, Germany (10384): wind direction: 14.06.2019 06:00:00 - 20.06.2019 06:00:00 (CEST)Berlin/Tempelhof, Germany (10384): reduced air pressure: 14.06.2019 06:00:00 - 20.06.2019 06:00:00 (CEST)Berlin/Tempelhof, Germany (10384): sunshine duration: 14.06.2019 06:00:00 - 20.06.2019 06:00:00 (CEST)Berlin/Tempelhof, Germany (10384): precipitation: 14.06.2019 06:00:00 - 20.06.2019 06:00:00 (CEST)
Date & Time tt [°C] td [°C] tt 5cm [°C] tt -5cm [°C] tt -20cm [°C] tt -100cm [°C] ff [km/h] ff [kn] fx [km/h] fx [kn] dd ppp [hPa] sd [min] rr [mm]
20.06.2019 06:00:00 18,5 14,5 14,8 20,7 22,3 17,5 3 2 27 15 NNE 1008,6 5 0,0
20.06.2019 05:00:00 18,6 14,3 15,3 21,2 22,6 17,4 10 5 23 12 NW 1008,0 0 0,0
20.06.2019 04:00:00 20,2 14,1 17,1 21,8 22,9 17,4 19 10 46 25 NW 1008,2 0 0,0
20.06.2019 03:00:00 21,4 14,4 17,5 22,4 23,1 17,4 10 5 18 10 N 1007,3 0 0,5
20.06.2019 02:00:00 22,6 11,3 19,9 22,8 23,4 17,4 11 6 24 13 NW 1008,1 0 0,0
20.06.2019 01:00:00 23,6 13,8 21,0 23,3 23,7 17,4 14 8 21 12 WNW 1008,4 0 0,0
20.06.2019 00:00:00 23,9 14,1 16,9 23,9 24,0 17,4 4 2 27 14 SW 1007,8 0 0,0
19.06.2019 23:00:00 24,2 12,5 19,8 24,8 24,3 17,4 8 4 14 8 SSE 1007,4 0 0,0
19.06.2019 22:00:00 25,4 12,5 21,7 25,9 24,6 17,4 7 4 14 8 S 1007,5 0 0,0
19.06.2019 21:00:00 26,3 12,6 23,5 27,3 24,7 17,4 9 5 26 14 SSE 1007,2 34 0,0
19.06.2019 20:00:00 27,6 13,6 27,9 28,7 24,8 17,4 18 10 46 25 SSE 1007,2 39 0,0
19.06.2019 19:00:00 30,9 14,4 34,0 29,5 24,7 17,4 6 4 18 10 S 1006,9 17 0,0
19.06.2019 18:00:00 31,0 12,5 33,4 30,6 24,6 17,4 10 6 27 15 S 1006,9 32 0,0
19.06.2019 17:00:00 30,6 11,9 31,4 31,8 24,2 17,4 12 7 24 13 S 1007,5 30 0,0
19.06.2019 16:00:00 31,2 13,1 33,7 32,4 23,7 17,4 13 7 31 17 SSW 1007,9 55 0,0
19.06.2019 15:00:00 31,4 12,6 36,9 31,3 23,2 17,4 10 6 29 15 S 1008,5 50 0,0
19.06.2019 14:00:00 29,7 13,3 30,9 30,3 22,7 17,4 13 7 28 15 S 1009,0 28 0,0
19.06.2019 13:00:00 30,4 13,9 35,9 29,7 22,1 17,4 13 7 29 15 S 1009,3 59 0,0
19.06.2019 12:00:00 29,1 13,7 33,7 27,8 21,6 17,3 13 7 26 14 SSE 1009,9 60 0,0
19.06.2019 11:00:00 27,7 14,7 29,6 25,9 21,2 17,3 14 8 23 13 SE 1010,3 60 0,0
19.06.2019 10:00:00 25,9 15,8 29,0 23,3 21,0 17,3 11 6 18 10 SE 1010,9 60 0,0
19.06.2019 09:00:00 23,6 15,5 25,7 21,3 21,0 17,3 10 6 16 8 E 1011,2 60 0,0
19.06.2019 08:00:00 21,4 14,4 22,0 19,9 21,1 17,3 9 5 16 9 ESE 1011,7 59 0,0
19.06.2019 07:00:00 19,7 13,8 18,2 19,5 21,3 17,3 8 5 16 8 ESE 1011,9 59 0,0
19.06.2019 06:00:00 18,0 13,3 13,9 19,4 21,6 17,3 5 3 11 6 E 1012,3 19 0,0
19.06.2019 05:00:00 17,0 12,2 10,7 19,8 21,9 17,3 5 3 14 8 E 1012,6 0 0,0
19.06.2019 04:00:00 17,5 12,7 11,0 20,3 22,2 17,3 9 5 12 6 E 1012,8 0 0,0
19.06.2019 03:00:00 19,6 12,6 12,3 20,9 22,5 17,3 6 3 10 6 ESE 1012,9 0 0,0
19.06.2019 02:00:00 20,3 12,2 14,9 21,6 22,9 17,3 8 5 15 8 ESE 1013,4 0 0,0
19.06.2019 01:00:00 21,1 12,1 17,4 22,2 23,2 17,2 11 6 16 9 ESE 1013,7 0 0,0
19.06.2019 00:00:00 22,0 11,4 17,5 22,9 23,6 17,2 9 5 17 9 ESE 1014,0 0 0,0
18.06.2019 23:00:00 23,0 10,2 17,5 23,8 24,0 17,2 9 5 18 10 ESE 1013,9 0 0,0
18.06.2019 22:00:00 24,7 8,9 15,9 25,2 24,4 17,2 8 4 14 7 SE 1013,8 0 0,0
18.06.2019 21:00:00 26,3 8,4 22,2 26,8 24,7 17,2 9 5 17 9 SE 1013,6 53 0,0
18.06.2019 20:00:00 27,6 9,3 25,9 28,7 24,8 17,2 10 5 21 12 SSE 1013,6 50 0,0
18.06.2019 19:00:00 28,4 7,5 27,5 30,8 24,7 17,2 9 5 26 14 S 1014,0 53 0,0
18.06.2019 18:00:00 28,8 8,9 32,9 32,3 24,4 17,2 10 6 31 17 SE 1014,3 60 0,0
18.06.2019 17:00:00 28,6 8,7 33,6 33,1 23,9 17,2 18 10 28 15 E 1014,9 60 0,0
18.06.2019 16:00:00 28,8 9,5 34,0 33,2 23,3 17,2 14 7 29 16 ESE 1015,5 60 0,0
18.06.2019 15:00:00 28,1 9,3 31,2 32,6 22,6 17,2 18 10 32 17 ESE 1016,2 59 0,0
18.06.2019 14:00:00 27,7 10,5 33,3 31,1 21,9 17,2 13 7 30 16 SE 1016,8 54 0,0
18.06.2019 13:00:00 27,9 12,2 33,2 29,5 21,2 17,2 16 8 36 19 SE 1017,4 60 0,0
18.06.2019 12:00:00 26,7 10,4 30,7 27,0 20,7 17,2 19 10 37 20 ESE 1018,0 60 0,0
18.06.2019 11:00:00 25,9 10,6 27,4 24,8 20,2 17,2 19 10 31 17 SE 1018,5 60 0,0
18.06.2019 10:00:00 25,0 12,5 27,5 22,5 20,0 17,2 16 9 26 14 SE 1019,0 60 0,0
18.06.2019 09:00:00 23,6 13,4 25,2 19,9 19,9 17,2 8 5 19 10 SE 1019,2 60 0,0
18.06.2019 08:00:00 21,1 13,5 20,7 18,5 20,1 17,2 10 5 16 8 ESE 1019,3 60 0,0
18.06.2019 07:00:00 18,7 13,4 16,4 18,0 20,2 17,2 7 4 11 6 ESE 1019,4 60 0,0
18.06.2019 06:00:00 15,9 12,9 11,5 17,9 20,5 17,2 7 4 9 5 E 1019,4 29 0,0
18.06.2019 05:00:00 16,0 12,5 9,9 18,3 20,8 17,2 6 3 17 9 E 1019,5 0 0,0
18.06.2019 04:00:00 16,9 12,9 13,3 18,8 21,0 17,2 10 5 16 9 E 1019,4 0 0,0
18.06.2019 03:00:00 17,5 12,7 13,8 19,2 21,3 17,2 11 6 20 11 E 1019,7 0 0,0
18.06.2019 02:00:00 17,9 12,8 14,3 19,7 21,6 17,2 13 7 21 12 E 1020,0 0 0,0
18.06.2019 01:00:00 18,3 13,0 14,8 20,1 22,0 17,2 15 8 21 11 E 1020,1 0 0,0
18.06.2019 00:00:00 18,7 12,7 13,2 20,8 22,3 17,2 12 6 15 8 E 1019,9 0 0,0
17.06.2019 23:00:00 20,1 12,1 12,7 21,7 22,7 17,2 10 5 14 7 E 1019,9 0 0,0
17.06.2019 22:00:00 21,9 11,6 13,6 22,9 23,0 17,2 8 4 11 6 E 1019,6 0 0,0
17.06.2019 21:00:00 22,6 12,1 17,1 24,3 23,3 17,2 8 4 13 7 E 1019,4 8 0,0
17.06.2019 20:00:00 23,3 13,2 21,5 25,8 23,4 17,2 11 6 15 8 ENE 1019,6 31 0,0
17.06.2019 19:00:00 25,7 11,3 28,4 27,2 23,4 17,2 8 4 16 9 SSE 1019,8 15 0,0
17.06.2019 18:00:00 25,9 11,9 28,7 28,2 23,2 17,2 3 2 12 6 NE 1020,1 14 0,0
17.06.2019 17:00:00 25,4 10,8 28,9 29,3 23,0 17,2 8 4 14 8 ENE 1020,5 25 0,0
17.06.2019 16:00:00 25,3 11,0 26,9 29,5 22,6 17,2 4 2 16 9 SSE 1021,0 21 0,0
17.06.2019 15:00:00 24,8 10,6 26,0 29,6 22,2 17,2 5 3 12 7 E 1021,3 24 0,0
17.06.2019 14:00:00 23,9 12,1 25,5 29,4 21,6 17,2 5 3 18 10 E 1021,6 19 0,0
17.06.2019 13:00:00 24,4 11,4 31,0 30,6 20,9 17,2 7 4 16 9 N 1022,0 60 0,0
17.06.2019 12:00:00 23,8 10,4 29,0 27,2 20,3 17,1 8 5 21 11 SW 1022,2 60 0,0
17.06.2019 11:00:00 22,9 10,9 25,2 24,4 19,8 17,1 7 4 20 11 S 1022,5 60 0,0
17.06.2019 10:00:00 21,6 9,1 24,7 21,5 19,6 17,1 11 6 25 13 SSW 1022,9 60 0,0
17.06.2019 09:00:00 20,8 11,0 22,4 19,3 19,6 17,2 10 6 19 11 SSE 1022,9 60 0,0
17.06.2019 08:00:00 18,7 12,1 18,9 18,4 19,6 17,1 6 4 14 8 S 1022,8 16 0,0
17.06.2019 07:00:00 18,0 12,3 17,7 18,2 19,8 17,1 6 3 10 5 S 1022,7 17 0,0
17.06.2019 06:00:00 17,1 12,6 15,3 18,0 19,9 17,1 2 1 8 5 S 1022,5 0 0,0
17.06.2019 05:00:00 16,7 11,9 11,5 18,0 20,1 17,1 4 2 6 4 S 1022,0 0 0,0
17.06.2019 04:00:00 16,8 11,8 14,9 18,3 20,2 17,1 3 1 5 3 E 1022,0 0 0,0
17.06.2019 03:00:00 16,9 11,5 13,4 18,4 20,4 17,1 3 1 6 3 WSW 1022,2 0 0,0
17.06.2019 02:00:00 17,3 11,7 14,0 18,3 20,7 17,1 3 2 8 4 S 1022,2 0 0,0
17.06.2019 01:00:00 16,7 11,6 10,1 18,6 20,9 17,1 3 1 5 3 SSW 1021,9 0 0,0
17.06.2019 00:00:00 18,1 11,3 11,3 19,5 21,2 17,1 3 1 4 2 W 1021,5 0 0,0
16.06.2019 23:00:00 19,2 10,8 14,7 20,2 21,4 17,1 4 2 8 4 WSW 1021,6 0 0,0
16.06.2019 22:00:00 19,6 10,9 17,0 20,7 21,6 17,1 5 3 12 7 W 1021,6 0 0,0
16.06.2019 21:00:00 19,8 11,0 18,2 21,3 21,7 17,1 9 5 16 9 WSW 1021,2 0 0,0
16.06.2019 20:00:00 20,3 11,1 19,0 22,3 21,8 17,1 10 5 18 10 W 1021,0 14 0,0
16.06.2019 19:00:00 20,3 12,6 20,3 22,8 21,9 17,1 11 6 19 11 WNW 1020,8 0 0,0
16.06.2019 18:00:00 20,5 12,5 21,7 23,0 22,0 17,1 13 7 20 11 WNW 1020,7 0 0,0
16.06.2019 17:00:00 19,6 12,9 20,2 23,2 22,0 17,1 13 7 22 12 WNW 1021,1 0 0,0
16.06.2019 16:00:00 19,8 12,1 20,4 23,9 22,0 17,1 16 8 27 15 WNW 1021,1 0 0,0
16.06.2019 15:00:00 20,9 12,6 21,9 24,8 22,0 17,1 13 7 26 14 W 1020,7 0 0,0
16.06.2019 14:00:00 21,0 11,4 22,3 25,1 21,8 17,1 18 10 26 14 WNW 1020,6 0 0,0
16.06.2019 13:00:00 21,6 10,9 22,9 26,4 21,4 17,0 14 8 24 13 WSW 1020,1 8 0,0
16.06.2019 12:00:00 22,0 10,8 24,7 26,9 20,9 17,0 10 5 31 17 WNW 1019,7 54 0,0
16.06.2019 11:00:00 21,3 12,6 24,4 24,9 20,5 17,0 12 6 21 12 NW 1019,2 60 0,0
16.06.2019 10:00:00 20,0 12,2 23,7 22,4 20,3 17,0 13 7 29 16 NW 1018,9 60 0,0
16.06.2019 09:00:00 18,5 12,2 21,9 20,0 20,2 17,0 14 7 26 14 NW 1018,8 60 0,0
16.06.2019 08:00:00 17,2 12,5 18,5 18,3 20,4 17,0 16 8 25 13 NW 1018,1 59 0,0
16.06.2019 07:00:00 15,2 12,0 14,0 17,9 20,6 17,0 15 8 30 16 NW 1017,9 8 0,0
16.06.2019 06:00:00 15,2 12,2 14,7 18,0 20,8 17,0 18 10 34 18 NW 1017,5 1 0,0
16.06.2019 05:00:00 15,3 12,2 13,7 18,2 21,1 16,9 18 10 30 16 NW 1016,7 0 0,0
16.06.2019 04:00:00 16,1 12,0 14,1 18,6 21,4 16,9 17 9 29 16 WNW 1015,9 0 0,0
16.06.2019 03:00:00 17,0 12,0 15,1 19,1 21,8 16,9 20 11 30 16 WNW 1015,8 0 0,0
16.06.2019 02:00:00 18,0 11,8 16,3 19,8 22,1 16,9 21 11 38 20 WNW 1015,7 0 0,0
16.06.2019 01:00:00 19,2 12,7 17,3 20,5 22,4 16,9 21 11 37 20 WNW 1015,6 0 0,0
16.06.2019 00:00:00 20,4 13,5 18,8 21,2 22,7 16,9 27 14 41 22 WNW 1014,6 0 0,0
15.06.2019 23:00:00 21,6 14,3 19,6 21,9 23,0 16,9 18 10 31 17 WNW 1014,0 0 0,0
15.06.2019 22:00:00 22,5 14,0 19,8 22,8 23,4 16,9 14 8 40 22 WNW 1013,3 0 0,0
15.06.2019 21:00:00 24,0 14,1 22,4 23,9 23,6 16,9 26 14 41 22 WNW 1011,6 53 0,0
15.06.2019 20:00:00 25,4 13,9 24,2 25,2 23,8 16,9 29 15 45 25 WNW 1011,2 60 0,0
15.06.2019 19:00:00 26,4 15,6 26,7 26,9 23,8 16,8 28 15 50 27 WNW 1010,9 60 0,0
15.06.2019 18:00:00 28,3 16,5 29,3 28,3 23,7 16,8 32 17 51 28 WNW 1010,0 57 0,0
15.06.2019 17:00:00 30,9 15,7 33,2 28,9 23,4 16,8 23 12 41 22 SW 1009,2 60 0,0
15.06.2019 16:00:00 31,5 15,8 34,7 28,6 23,1 16,8 22 12 36 19 SW 1008,8 34 0,0
15.06.2019 15:00:00 31,7 18,3 35,7 29,0 22,7 16,8 22 12 39 21 SW 1008,7 50 0,0
15.06.2019 14:00:00 30,5 19,7 34,2 27,0 22,4 16,8 11 6 29 15 S 1008,5 5 0,0
15.06.2019 13:00:00 29,4 18,1 30,5 28,0 22,0 16,8 19 11 31 17 SSW 1008,5 39 0,0
15.06.2019 12:00:00 28,4 18,6 31,0 26,5 21,6 16,8 23 12 36 19 SE 1008,3 57 0,0
15.06.2019 11:00:00 27,3 18,3 28,9 25,2 21,2 16,8 21 12 37 20 SE 1009,0 54 0,0
15.06.2019 10:00:00 26,2 18,7 28,7 23,2 21,0 16,8 23 12 40 22 ESE 1009,0 21 0,0
15.06.2019 09:00:00 25,2 18,3 27,0 22,2 21,0 16,8 28 15 52 28 ESE 1009,6 47 0,0
15.06.2019 08:00:00 23,3 18,0 23,0 20,9 21,0 16,7 24 13 41 22 ESE 1009,7 22 0,0
15.06.2019 07:00:00 22,5 17,7 22,0 20,4 21,1 16,7 23 12 53 28 ESE 1009,9 0 0,0
15.06.2019 06:00:00 22,2 17,1 21,0 20,4 21,2 16,7 21 12 40 22 ESE 1010,3 0 0,0
15.06.2019 05:00:00 22,7 16,5 21,2 20,5 21,4 16,7 21 12 31 17 E 1012,2 0 0,0
15.06.2019 04:00:00 22,6 16,0 20,7 20,7 21,6 16,7 16 9 26 14 E 1012,7 0 0,0
15.06.2019 03:00:00 23,2 15,7 21,2 20,8 21,8 16,7 15 8 26 14 E 1013,6 0 0,0
15.06.2019 02:00:00 23,6 14,9 21,7 21,1 22,0 16,7 16 9 28 15 E 1014,6 0 0,0
15.06.2019 01:00:00 23,7 14,3 21,7 21,4 22,2 16,7 14 7 26 14 E 1014,9 0 0,0
15.06.2019 00:00:00 23,2 14,5 20,3 22,0 22,4 16,7 14 8 22 12 E 1015,5 0 0,0
14.06.2019 23:00:00 23,8 14,7 19,6 22,5 22,7 16,7 8 4 19 10 E 1016,1 0 0,0
14.06.2019 22:00:00 24,4 14,6 22,1 23,1 22,9 16,7 15 8 22 12 E 1015,5 0 0,0
14.06.2019 21:00:00 24,8 14,2 22,2 23,9 23,1 16,7 14 8 19 11 E 1015,6 0 0,0
14.06.2019 20:00:00 26,9 11,4 23,7 24,7 23,2 16,7 8 5 20 11 ESE 1015,8 3 0,0
14.06.2019 19:00:00 28,2 10,1 27,2 25,7 23,2 16,6 12 6 20 11 ESE 1016,0 42 0,0
14.06.2019 18:00:00 28,7 9,0 29,4 26,8 23,2 16,6 12 7 23 12 SE 1016,2 47 0,0
14.06.2019 17:00:00 28,7 8,9 30,2 27,5 23,0 16,6 8 5 18 10 SE 1016,9 7 0,0
14.06.2019 16:00:00 28,3 8,7 28,8 28,5 22,7 16,6 10 5 27 15 SE 1017,3 39 0,0
14.06.2019 15:00:00 29,5 8,9 33,0 29,6 22,1 16,6 7 4 30 16 SW 1017,7 60 0,0
14.06.2019 14:00:00 28,2 6,5 32,5 29,2 21,5 16,6 12 7 25 13 SE 1018,1 60 0,0
14.06.2019 13:00:00 27,5 12,4 31,2 27,8 20,9 16,6 14 7 23 13 SE 1018,7 60 0,0
14.06.2019 12:00:00 26,7 12,1 30,0 26,0 20,3 16,6 11 6 22 12 S 1019,0 60 0,0
14.06.2019 11:00:00 25,5 14,4 27,7 24,1 19,9 16,6 8 5 19 10 S 1019,2 60 0,0
14.06.2019 10:00:00 24,1 13,7 26,7 21,8 19,6 16,6 7 4 16 9 SE 1019,3 60 0,0
14.06.2019 09:00:00 22,0 15,1 23,2 19,2 19,5 16,6 9 5 15 8 SE 1019,2 60 0,0
14.06.2019 08:00:00 19,8 14,5 19,5 17,6 19,7 16,6 10 5 17 9 ESE 1019,0 60 0,0
14.06.2019 07:00:00 17,8 12,7 15,2 17,1 19,9 16,5 6 3 16 8 E 1018,5 60 0,0
14.06.2019 06:00:00 15,9 12,0 11,5 16,9 20,2 16,5 5 3 10 5 E 1018,3 38 0,0

tt = temperature
td = dewpoint
tt 5cm = temperature 5cm
tt -5cm = temperature -5cm
tt -20cm = temperature -20cm
tt -100cm = temperature -100cm
ff = wind speed
fx = gusts
dd = wind direction
ppp = reduced air pressure
sd = sunshine duration
rr = precipitation

Next stations